Overview Statistics Trail Chart Weather Telemetry Raw packets
 

This is the latest recevied weather packets stored in our database for station/object MB7UKB-10. If no packets are shown the sender has not sent any weather packets the latest 10 day(s).

<< 1 2 3 4 5 6 >>
Time Temp. Humidity Pressure Rain* Wind** Luminosity Snow
1788614438 22.22° C 42% 1024.1 hPa 0 mm - - -
1788612638 21.67° C 43% 1024.2 hPa 0 mm - - -
1788610838 21.67° C 43% 1024.3 hPa 0 mm - - -
1788609038 21.67° C 43% 1024.1 hPa 0 mm - - -
1788607238 20.56° C 46% 1024.3 hPa 0 mm - - -
1788605438 21.11° C 47% 1024.2 hPa 0 mm - - -
1788603638 19.44° C 54% 1024.2 hPa 0 mm - - -
1788601838 18.89° C 56% 1024 hPa 0 mm - - -
1788600038 17.78° C 62% 1023.8 hPa 0 mm - - -
1788598238 17.22° C 66% 1023.8 hPa 0 mm - - -
1788596439 16.11° C 72% 1023.7 hPa 0 mm - - -
1788594638 15° C 77% 1023.3 hPa 0 mm - - -
1788592838 13.89° C 80% 1023.2 hPa 0 mm - - -
1788591055 12.78° C 84% 1023.1 hPa 0 mm - - -
1788589246 11.67° C 88% 1022.7 hPa 0 mm - - -
1788587455 11.11° C 91% 1022.2 hPa 0 mm - - -
1788585638 11.67° C 91% 1021.9 hPa 0 mm - - -
1788583838 11.67° C 90% 1021.6 hPa 0 mm - - -
1788582038 11.67° C 90% 1021.4 hPa 0 mm - - -
1788580238 11.67° C 89% 1021.1 hPa 0 mm - - -
1788578438 12.22° C 88% 1020.9 hPa 0 mm - - -
1788576638 12.22° C 88% 1020.5 hPa 0 mm - - -
1788574838 12.22° C 88% 1020.4 hPa 0 mm - - -
1788573038 12.22° C 88% 1020.1 hPa 0 mm - - -
1788571238 12.22° C 88% 1020.1 hPa 0 mm - - -

* Rain latest hour (hover to see other rain measurements)
** Current wind speed in m/s (hover to see current wind gust speed)